createdAt,value
2023-02-25T00:01:40.345Z,95387.00
2023-02-25T00:04:07.957Z,95390.00
2023-02-25T00:06:34.824Z,95393.00
2023-02-25T00:09:01.613Z,95395.00
2023-02-25T00:11:29.578Z,95389.00
2023-02-25T00:13:56.914Z,95383.00
2023-02-25T00:16:25.773Z,95405.00
2023-02-25T00:18:58.154Z,95407.00
2023-02-25T00:21:27.140Z,95416.00
2023-02-25T00:23:55.002Z,95406.00
2023-02-25T00:26:23.329Z,95416.00
2023-02-25T00:28:51.152Z,95406.00
2023-02-25T00:31:23.111Z,95414.00
2023-02-25T00:33:51.942Z,95425.00
2023-02-25T00:36:23.141Z,95417.00
2023-02-25T00:38:54.984Z,95423.00
2023-02-25T00:41:26.856Z,95433.00
2023-02-25T00:44:00.669Z,95419.00
2023-02-25T00:46:31.590Z,95418.00
2023-02-25T00:48:59.438Z,95416.00
2023-02-25T00:51:30.159Z,95427.00
2023-02-25T00:53:59.757Z,95432.00
2023-02-25T00:56:27.170Z,95434.00
2023-02-25T00:58:54.190Z,95425.00
2023-02-25T01:01:23.175Z,95425.00
2023-02-25T01:03:52.889Z,95419.00
2023-02-25T01:06:21.538Z,95430.00
2023-02-25T01:08:49.931Z,95427.00
2023-02-25T01:11:21.029Z,95434.00
2023-02-25T01:13:50.937Z,95434.00
2023-02-25T01:16:23.425Z,95432.00
2023-02-25T01:18:57.452Z,95434.00
2023-02-25T01:21:30.715Z,95426.00
2023-02-25T01:24:01.924Z,95431.00
2023-02-25T01:26:32.218Z,95422.00
2023-02-25T01:28:59.240Z,95417.00
2023-02-25T01:31:29.506Z,95424.00
2023-02-25T01:34:03.003Z,95423.00
2023-02-25T01:36:32.434Z,95417.00
2023-02-25T01:39:00.864Z,95417.00
2023-02-25T01:41:31.796Z,95421.00
2023-02-25T01:44:28.714Z,95425.00
2023-02-25T01:46:55.989Z,95423.00
2023-02-25T01:49:35.900Z,95419.00
2023-02-25T01:52:19.180Z,95420.00
2023-02-25T01:54:48.005Z,95414.00
2023-02-25T01:57:17.764Z,95416.00
2023-02-25T01:59:48.192Z,95418.00
2023-02-25T02:02:21.184Z,95428.00
2023-02-25T02:04:52.847Z,95420.00
2023-02-25T02:07:22.962Z,95436.00
2023-02-25T02:09:59.911Z,95425.00
2023-02-25T02:12:34.753Z,95423.00
2023-02-25T02:15:07.816Z,95433.00
2023-02-25T02:17:39.377Z,95441.00
2023-02-25T02:20:20.520Z,95445.00
2023-02-25T02:23:17.655Z,95436.00
2023-02-25T02:26:01.482Z,95429.00
2023-02-25T02:29:07.543Z,95434.00
2023-02-25T02:32:10.454Z,95436.00
2023-02-25T02:34:58.916Z,95440.00
2023-02-25T02:37:50.033Z,95434.00
2023-02-25T02:40:23.900Z,95434.00
2023-02-25T02:43:14.861Z,95448.00
2023-02-25T02:46:20.857Z,95447.00
2023-02-25T02:49:08.522Z,95447.00
2023-02-25T02:51:48.881Z,95443.00
2023-02-25T02:54:18.201Z,95450.00
2023-02-25T02:56:50.344Z,95439.00
2023-02-25T02:59:42.748Z,95447.00
2023-02-25T03:02:26.693Z,95442.00
2023-02-25T03:05:01.013Z,95437.00
2023-02-25T03:07:29.593Z,95446.00
2023-02-25T03:10:01.555Z,95442.00
2023-02-25T03:12:30.796Z,95451.00
2023-02-25T03:14:57.692Z,95454.00
2023-02-25T03:17:29.741Z,95458.00
2023-02-25T03:20:24.623Z,95453.00
2023-02-25T03:22:55.390Z,95458.00
2023-02-25T03:25:36.673Z,95444.00
2023-02-25T03:28:33.363Z,95453.00
2023-02-25T03:31:39.550Z,95463.00
2023-02-25T03:34:13.751Z,95466.00
2023-02-25T03:37:06.875Z,95449.00
2023-02-25T03:39:41.051Z,95462.00
2023-02-25T03:42:12.499Z,95469.00
2023-02-25T03:44:53.853Z,95460.00
2023-02-25T03:47:23.958Z,95466.00
2023-02-25T03:50:01.009Z,95473.00
2023-02-25T03:52:29.354Z,95478.00
2023-02-25T03:54:58.208Z,95466.00
2023-02-25T03:57:35.370Z,95475.00
2023-02-25T04:00:15.486Z,95480.00
2023-02-25T04:02:44.226Z,95482.00
2023-02-25T04:05:12.172Z,95481.00
2023-02-25T04:07:39.607Z,95484.00
2023-02-25T04:10:10.936Z,95477.00
2023-02-25T04:12:38.033Z,95497.00
2023-02-25T04:15:07.359Z,95493.00
2023-02-25T04:17:35.679Z,95506.00
2023-02-25T04:20:04.851Z,95499.00
2023-02-25T04:22:32.392Z,95497.00
2023-02-25T04:24:59.238Z,95506.00
2023-02-25T04:27:27.422Z,95494.00
2023-02-25T04:29:55.307Z,95502.00
2023-02-25T04:32:22.304Z,95504.00
2023-02-25T04:34:49.213Z,95505.00
2023-02-25T04:37:18.135Z,95503.00
2023-02-25T04:39:45.405Z,95494.00
2023-02-25T04:42:12.866Z,95493.00
2023-02-25T04:44:39.751Z,95491.00
2023-02-25T04:47:06.841Z,95503.00
2023-02-25T04:49:44.810Z,95503.00
2023-02-25T04:52:13.567Z,95499.00
2023-02-25T04:54:41.284Z,95505.00
2023-02-25T04:57:11.416Z,95487.00
2023-02-25T04:59:38.897Z,95495.00
2023-02-25T05:02:07.448Z,95502.00
2023-02-25T05:04:38.323Z,95504.00
2023-02-25T05:07:07.010Z,95511.00
2023-02-25T05:09:35.481Z,95514.00
2023-02-25T05:12:03.615Z,95522.00
2023-02-25T05:14:32.859Z,95516.00
2023-02-25T05:16:59.818Z,95517.00
2023-02-25T05:19:26.811Z,95509.00
2023-02-25T05:21:54.138Z,95514.00
2023-02-25T05:24:23.460Z,95509.00
2023-02-25T05:26:51.586Z,95517.00
2023-02-25T05:29:18.470Z,95509.00
2023-02-25T05:31:45.620Z,95521.00
2023-02-25T05:34:12.593Z,95514.00
2023-02-25T05:36:41.062Z,95531.00
2023-02-25T05:39:09.009Z,95530.00
2023-02-25T05:41:36.394Z,95516.00
2023-02-25T05:44:03.204Z,95527.00
2023-02-25T05:46:30.237Z,95522.00
2023-02-25T05:48:57.217Z,95527.00
2023-02-25T05:51:24.096Z,95508.00
2023-02-25T05:53:53.691Z,95523.00
2023-02-25T05:56:26.077Z,95529.00
2023-02-25T05:58:55.139Z,95522.00
2023-02-25T06:01:28.483Z,95531.00
2023-02-25T06:03:58.821Z,95514.00
2023-02-25T06:06:29.322Z,95530.00
2023-02-25T06:08:56.462Z,95529.00
2023-02-25T06:11:30.041Z,95527.00
2023-02-25T06:13:59.061Z,95535.00
2023-02-25T06:16:32.523Z,95545.00
2023-02-25T06:19:02.505Z,95547.00
2023-02-25T06:21:30.436Z,95552.00
2023-02-25T06:23:57.561Z,95563.00
2023-02-25T06:26:24.908Z,95553.00
2023-02-25T06:28:52.566Z,95547.00
2023-02-25T06:31:22.549Z,95550.00
2023-02-25T06:33:51.759Z,95553.00
2023-02-25T06:36:21.516Z,95568.00
2023-02-25T06:38:49.195Z,95551.00
2023-02-25T06:41:19.343Z,95555.00
2023-02-25T06:43:46.727Z,95568.00
2023-02-25T06:46:15.421Z,95576.00
2023-02-25T06:48:43.487Z,95565.00
2023-02-25T06:51:11.840Z,95574.00
2023-02-25T06:53:41.161Z,95591.00
2023-02-25T06:56:09.496Z,95588.00
2023-02-25T06:58:39.241Z,95585.00
2023-02-25T07:01:14.562Z,95587.00
2023-02-25T07:03:43.673Z,95585.00
2023-02-25T07:06:12.375Z,95601.00
2023-02-25T07:08:39.938Z,95594.00
2023-02-25T07:11:18.964Z,95600.00
2023-02-25T07:13:49.952Z,95582.00
2023-02-25T07:16:18.068Z,95591.00
2023-02-25T07:18:45.375Z,95598.00
2023-02-25T07:21:13.921Z,95600.00
2023-02-25T07:23:41.744Z,95597.00
2023-02-25T07:26:13.124Z,95602.00
2023-02-25T07:28:41.642Z,95603.00
2023-02-25T07:31:18.437Z,95609.00
2023-02-25T07:33:46.570Z,95598.00
2023-02-25T07:36:15.405Z,95592.00
2023-02-25T07:38:43.319Z,95609.00
2023-02-25T07:41:18.201Z,95600.00
2023-02-25T07:43:46.648Z,95603.00
2023-02-25T07:46:13.856Z,95600.00
2023-02-25T07:48:41.557Z,95595.00
2023-02-25T07:51:18.922Z,95600.00
2023-02-25T07:53:48.019Z,95601.00
2023-02-25T07:56:17.773Z,95602.00
2023-02-25T07:58:45.813Z,95604.00
2023-02-25T08:01:29.156Z,95613.00
2023-02-25T08:04:01.233Z,95614.00
2023-02-25T08:06:30.216Z,95602.00
2023-02-25T08:08:57.362Z,95601.00
2023-02-25T08:11:26.570Z,95605.00
2023-02-25T08:13:54.996Z,95600.00
2023-02-25T08:16:22.820Z,95609.00
2023-02-25T08:18:50.384Z,95605.00
2023-02-25T08:21:21.746Z,95613.00
2023-02-25T08:23:53.240Z,95605.00
2023-02-25T08:26:22.416Z,95619.00
2023-02-25T08:28:51.667Z,95612.00
2023-02-25T08:31:21.012Z,95619.00
2023-02-25T08:33:49.879Z,95618.00
2023-02-25T08:36:24.415Z,95614.00
2023-02-25T08:38:52.149Z,95626.00
2023-02-25T08:41:21.751Z,95629.00
2023-02-25T08:43:52.147Z,95622.00
2023-02-25T08:46:21.087Z,95618.00
2023-02-25T08:48:53.513Z,95617.00
2023-02-25T08:51:23.293Z,95620.00
2023-02-25T08:53:50.583Z,95624.00
2023-02-25T08:56:17.732Z,95628.00
2023-02-25T08:58:45.757Z,95607.00
2023-02-25T09:01:17.758Z,95628.00
2023-02-25T09:03:53.742Z,95612.00
2023-02-25T09:06:28.470Z,95618.00
2023-02-25T09:08:58.391Z,95636.00
2023-02-25T09:11:26.704Z,95619.00
2023-02-25T09:13:54.551Z,95624.00
2023-02-25T09:16:21.629Z,95625.00
2023-02-25T09:18:51.247Z,95626.00
2023-02-25T09:21:19.036Z,95623.00
2023-02-25T09:23:47.968Z,95631.00
2023-02-25T09:26:15.845Z,95625.00
2023-02-25T09:28:44.776Z,95634.00
2023-02-25T09:31:11.788Z,95632.00
2023-02-25T09:33:40.366Z,95634.00
2023-02-25T09:36:18.525Z,95645.00
2023-02-25T09:38:47.099Z,95630.00
2023-02-25T09:41:33.053Z,95634.00
2023-02-25T09:44:20.229Z,95640.00
2023-02-25T09:46:58.756Z,95644.00
2023-02-25T09:49:50.120Z,95638.00
2023-02-25T09:52:28.616Z,95641.00
2023-02-25T09:55:24.030Z,95648.00
2023-02-25T09:58:03.751Z,95647.00
2023-02-25T10:00:35.770Z,95647.00
2023-02-25T10:03:26.048Z,95648.00
2023-02-25T10:06:44.353Z,95650.00
2023-02-25T10:09:37.982Z,95655.00
2023-02-25T10:12:25.441Z,95641.00
2023-02-25T10:15:23.142Z,95659.00
2023-02-25T10:18:08.247Z,95657.00
2023-02-25T10:20:39.714Z,95661.00
2023-02-25T10:23:39.259Z,95658.00
2023-02-25T10:26:25.727Z,95655.00
2023-02-25T10:29:04.954Z,95648.00
2023-02-25T10:31:32.571Z,95652.00
2023-02-25T10:34:25.793Z,95649.00
2023-02-25T10:37:00.129Z,95635.00
2023-02-25T10:39:28.615Z,95636.00
2023-02-25T10:41:55.581Z,95633.00
2023-02-25T10:44:22.408Z,95644.00
2023-02-25T10:47:03.270Z,95650.00
2023-02-25T10:49:37.956Z,95632.00
2023-02-25T10:52:15.835Z,95629.00
2023-02-25T10:54:52.639Z,95635.00
2023-02-25T10:57:43.778Z,95625.00
2023-02-25T11:00:32.712Z,95633.00
2023-02-25T11:03:02.139Z,95641.00
2023-02-25T11:05:41.607Z,95638.00
2023-02-25T11:08:32.123Z,95651.00
2023-02-25T11:11:33.473Z,95635.00
2023-02-25T11:14:02.231Z,95634.00
2023-02-25T11:16:32.366Z,95644.00
2023-02-25T11:19:04.251Z,95634.00
2023-02-25T11:21:40.142Z,95633.00
2023-02-25T11:24:40.123Z,95644.00
2023-02-25T11:27:33.701Z,95630.00
2023-02-25T11:30:12.924Z,95620.00
2023-02-25T11:32:59.575Z,95625.00
2023-02-25T11:35:35.717Z,95629.00
2023-02-25T11:38:35.652Z,95629.00
2023-02-25T11:41:03.423Z,95619.00
2023-02-25T11:43:42.529Z,95603.00
2023-02-25T11:46:18.071Z,95606.00
2023-02-25T11:48:54.864Z,95604.00
2023-02-25T11:51:28.228Z,95603.00
2023-02-25T11:54:23.097Z,95600.00
2023-02-25T11:56:57.761Z,95602.00
2023-02-25T11:59:45.559Z,95606.00
2023-02-25T12:02:45.434Z,95597.00
2023-02-25T12:05:39.983Z,95603.00
2023-02-25T12:08:43.638Z,95606.00
2023-02-25T12:11:55.324Z,95596.00
2023-02-25T12:14:57.435Z,95596.00
2023-02-25T12:17:59.289Z,95597.00
2023-02-25T12:21:24.148Z,95577.00
2023-02-25T12:24:44.123Z,95590.00
2023-02-25T12:27:30.142Z,95581.00
2023-02-25T12:30:08.896Z,95590.00
2023-02-25T12:33:26.331Z,95567.00
2023-02-25T12:36:26.747Z,95558.00
2023-02-25T12:39:28.647Z,95572.00
2023-02-25T12:42:24.549Z,95570.00
2023-02-25T12:45:16.358Z,95565.00
2023-02-25T12:48:02.244Z,95552.00
2023-02-25T12:50:44.198Z,95561.00
2023-02-25T12:53:54.596Z,95566.00
2023-02-25T12:57:08.730Z,95556.00
2023-02-25T13:00:32.234Z,95549.00
2023-02-25T13:03:57.175Z,95551.00
2023-02-25T13:07:02.773Z,95559.00
2023-02-25T13:09:51.816Z,95577.00
2023-02-25T13:12:49.846Z,95571.00
2023-02-25T13:15:36.299Z,95574.00
2023-02-25T13:18:16.602Z,95590.00
2023-02-25T13:21:27.972Z,95605.00
2023-02-25T13:24:46.415Z,95634.00
2023-02-25T13:27:43.975Z,95654.00
2023-02-25T13:30:12.100Z,95670.00
2023-02-25T13:33:00.661Z,95689.00
2023-02-25T13:36:00.642Z,95685.00
2023-02-25T13:39:08.181Z,95686.00
2023-02-25T13:41:59.274Z,95681.00
2023-02-25T13:45:06.530Z,95677.00
2023-02-25T13:52:28.383Z,95681.00
2023-02-25T13:55:21.459Z,95675.00
2023-02-25T13:58:06.297Z,95680.00
2023-02-25T14:00:54.364Z,95673.00
2023-02-25T14:04:08.958Z,95675.00
2023-02-25T14:07:22.159Z,95687.00
2023-02-25T14:10:33.299Z,95690.00
2023-02-25T14:13:15.632Z,95698.00
2023-02-25T14:15:51.136Z,95699.00
2023-02-25T14:18:44.575Z,95699.00
2023-02-25T14:21:33.530Z,95705.00
2023-02-25T14:24:28.122Z,95705.00
2023-02-25T14:27:18.099Z,95692.00
2023-02-25T14:30:12.417Z,95681.00
2023-02-25T14:33:13.216Z,95668.00
2023-02-25T14:36:06.385Z,95669.00
2023-02-25T14:38:51.725Z,95679.00
2023-02-25T14:42:03.121Z,95683.00
2023-02-25T14:44:54.880Z,95690.00
2023-02-25T14:47:39.841Z,95701.00
2023-02-25T14:50:20.586Z,95706.00
2023-02-25T14:53:06.436Z,95725.00
2023-02-25T14:56:04.043Z,95732.00
2023-02-25T14:58:46.932Z,95730.00
2023-02-25T15:01:53.977Z,95742.00
2023-02-25T15:04:44.757Z,95736.00
2023-02-25T15:07:32.497Z,95747.00
2023-02-25T15:10:19.713Z,95740.00
2023-02-25T15:13:22.143Z,95751.00
2023-02-25T15:16:14.616Z,95751.00
2023-02-25T15:19:17.027Z,95748.00
2023-02-25T15:21:46.635Z,95757.00
2023-02-25T15:24:42.421Z,95767.00
2023-02-25T15:27:35.277Z,95770.00
2023-02-25T15:30:03.679Z,95774.00
2023-02-25T15:33:14.327Z,95778.00
2023-02-25T15:35:41.167Z,95764.00
2023-02-25T15:38:19.062Z,95768.00
2023-02-25T15:40:52.721Z,95765.00
2023-02-25T15:43:19.565Z,95768.00
2023-02-25T15:45:55.772Z,95775.00
2023-02-25T15:48:32.195Z,95773.00
2023-02-25T15:51:06.279Z,95778.00
2023-02-25T15:53:38.445Z,95783.00
2023-02-25T15:56:05.178Z,95780.00
2023-02-25T15:58:32.144Z,95780.00
2023-02-25T16:01:23.322Z,95777.00
2023-02-25T16:03:52.013Z,95778.00
2023-02-25T16:06:39.024Z,95774.00
2023-02-25T16:09:10.770Z,95778.00
2023-02-25T16:11:53.537Z,95791.00
2023-02-25T16:14:29.985Z,95782.00
2023-02-25T16:17:06.939Z,95786.00
2023-02-25T16:19:39.225Z,95793.00
2023-02-25T16:22:13.655Z,95796.00
2023-02-25T16:24:47.209Z,95798.00
2023-02-25T16:27:34.877Z,95802.00
2023-02-25T16:30:27.761Z,95809.00
2023-02-25T16:33:28.712Z,95812.00
2023-02-25T16:36:13.831Z,95814.00
2023-02-25T16:38:57.505Z,95820.00
2023-02-25T16:41:36.392Z,95801.00
2023-02-25T16:44:05.389Z,95813.00
2023-02-25T16:46:37.390Z,95813.00
2023-02-25T16:49:11.579Z,95805.00
2023-02-25T16:51:42.280Z,95809.00
2023-02-25T16:54:38.240Z,95808.00
2023-02-25T16:57:09.457Z,95808.00
2023-02-25T16:59:38.829Z,95815.00
2023-02-25T17:02:17.931Z,95820.00
2023-02-25T17:04:51.702Z,95829.00
2023-02-25T17:07:30.201Z,95825.00
2023-02-25T17:10:06.185Z,95824.00
2023-02-25T17:12:47.609Z,95824.00
2023-02-25T17:15:30.198Z,95827.00
2023-02-25T17:18:08.782Z,95839.00
2023-02-25T17:20:37.502Z,95846.00
2023-02-25T17:23:12.806Z,95856.00
2023-02-25T17:25:46.240Z,95849.00
2023-02-25T17:28:26.114Z,95863.00
2023-02-25T17:31:06.263Z,95860.00
2023-02-25T17:33:34.588Z,95869.00
2023-02-25T17:36:13.993Z,95868.00
2023-02-25T17:38:44.094Z,95883.00
2023-02-25T17:41:21.298Z,95913.00
2023-02-25T17:43:48.052Z,95909.00
2023-02-25T17:46:36.793Z,95908.00
2023-02-25T17:49:30.246Z,95916.00
2023-02-25T17:51:59.592Z,95909.00
2023-02-25T17:54:33.441Z,95913.00
2023-02-25T17:57:02.297Z,95915.00
2023-02-25T17:59:39.263Z,95906.00
2023-02-25T18:02:33.248Z,95902.00
2023-02-25T18:05:12.939Z,95908.00
2023-02-25T18:07:47.411Z,95910.00
2023-02-25T18:10:23.471Z,95916.00
2023-02-25T18:12:51.480Z,95917.00
2023-02-25T18:15:23.749Z,95914.00
2023-02-25T18:17:58.747Z,95917.00
2023-02-25T18:20:30.613Z,95931.00
2023-02-25T18:23:24.175Z,95930.00
2023-02-25T18:26:15.113Z,95937.00
2023-02-25T18:28:42.129Z,95940.00
2023-02-25T18:31:09.789Z,95933.00
2023-02-25T18:33:36.748Z,95932.00
2023-02-25T18:36:09.111Z,95928.00
2023-02-25T18:38:43.697Z,95930.00
2023-02-25T18:41:11.976Z,95931.00
2023-02-25T18:43:41.879Z,95925.00
2023-02-25T18:46:09.784Z,95936.00
2023-02-25T18:48:37.057Z,95931.00
2023-02-25T18:51:05.783Z,95938.00
2023-02-25T18:53:33.618Z,95937.00
2023-02-25T18:56:00.576Z,95935.00
2023-02-25T18:58:27.408Z,95937.00
2023-02-25T19:00:57.823Z,95944.00
2023-02-25T19:03:39.122Z,95947.00
2023-02-25T19:06:06.806Z,95948.00
2023-02-25T19:08:33.875Z,95960.00
2023-02-25T19:11:00.977Z,95956.00
2023-02-25T19:13:40.394Z,95963.00
2023-02-25T19:16:08.100Z,95962.00
2023-02-25T19:18:36.750Z,95960.00
2023-02-25T19:21:05.539Z,95973.00
2023-02-25T19:23:32.303Z,95979.00
2023-02-25T19:26:01.187Z,95984.00
2023-02-25T19:28:28.105Z,95981.00
2023-02-25T19:30:55.572Z,95986.00
2023-02-25T19:33:22.460Z,95980.00
2023-02-25T19:35:49.379Z,95992.00
2023-02-25T19:38:20.309Z,95995.00
2023-02-25T19:40:48.840Z,95998.00
2023-02-25T19:43:17.702Z,95996.00
2023-02-25T19:45:44.643Z,95998.00
2023-02-25T19:48:11.549Z,96004.00
2023-02-25T19:50:41.102Z,96008.00
2023-02-25T19:53:08.250Z,96015.00
2023-02-25T19:55:35.278Z,96014.00
2023-02-25T19:58:02.309Z,96025.00
2023-02-25T20:00:29.171Z,96027.00
2023-02-25T20:02:56.212Z,96024.00
2023-02-25T20:05:24.406Z,96032.00
2023-02-25T20:07:51.486Z,96036.00
2023-02-25T20:10:18.784Z,96039.00
2023-02-25T20:12:47.525Z,96038.00
2023-02-25T20:15:15.942Z,96048.00
2023-02-25T20:17:45.043Z,96049.00
2023-02-25T20:20:15.303Z,96047.00
2023-02-25T20:22:42.853Z,96044.00
2023-02-25T20:25:13.177Z,96056.00
2023-02-25T20:27:43.218Z,96053.00
2023-02-25T20:30:14.451Z,96056.00
2023-02-25T20:32:43.580Z,96059.00
2023-02-25T20:35:21.734Z,96056.00
2023-02-25T20:38:27.088Z,96054.00
2023-02-25T20:40:53.999Z,96057.00
2023-02-25T20:43:21.262Z,96062.00
2023-02-25T20:45:48.389Z,96054.00
2023-02-25T20:48:31.298Z,96056.00
2023-02-25T20:50:59.032Z,96062.00
2023-02-25T20:53:26.078Z,96064.00
2023-02-25T20:55:56.387Z,96058.00
2023-02-25T20:58:23.173Z,96064.00
2023-02-25T21:00:50.029Z,96061.00
2023-02-25T21:03:16.933Z,96067.00
2023-02-25T21:05:43.788Z,96070.00
2023-02-25T21:08:10.643Z,96073.00
2023-02-25T21:10:37.501Z,96070.00
2023-02-25T21:13:04.253Z,96081.00
2023-02-25T21:15:31.160Z,96075.00
2023-02-25T21:17:58.015Z,96085.00
2023-02-25T21:20:24.833Z,96088.00
2023-02-25T21:22:51.713Z,96094.00
2023-02-25T21:25:18.513Z,96091.00
2023-02-25T21:27:45.522Z,96100.00
2023-02-25T21:30:13.358Z,96098.00
2023-02-25T21:32:40.166Z,96101.00
2023-02-25T21:35:07.338Z,96097.00
2023-02-25T21:37:34.150Z,96102.00
2023-02-25T21:40:00.974Z,96095.00
2023-02-25T21:42:28.016Z,96105.00
2023-02-25T21:44:54.872Z,96084.00
2023-02-25T21:47:21.841Z,96101.00
2023-02-25T21:49:50.232Z,96099.00
2023-02-25T21:52:18.499Z,96089.00
2023-02-25T21:54:45.271Z,96105.00
2023-02-25T21:57:12.105Z,96099.00
2023-02-25T21:59:38.978Z,96100.00
2023-02-25T22:02:05.744Z,96104.00
2023-02-25T22:04:32.659Z,96097.00
2023-02-25T22:06:59.643Z,96097.00
2023-02-25T22:09:26.496Z,96104.00
2023-02-25T22:11:53.361Z,96105.00
2023-02-25T22:14:20.238Z,96101.00
2023-02-25T22:16:46.977Z,96099.00
2023-02-25T22:19:13.757Z,96088.00
2023-02-25T22:21:40.578Z,96098.00
2023-02-25T22:24:07.446Z,96108.00
2023-02-25T22:26:36.302Z,96097.00
2023-02-25T22:29:09.432Z,96104.00
2023-02-25T22:31:36.967Z,96093.00
2023-02-25T22:34:05.496Z,96098.00
2023-02-25T22:36:32.471Z,96103.00
2023-02-25T22:38:59.336Z,96104.00
2023-02-25T22:41:29.583Z,96109.00
2023-02-25T22:43:58.666Z,96106.00
2023-02-25T22:46:33.496Z,96117.00
2023-02-25T22:49:00.297Z,96112.00
2023-02-25T22:51:36.555Z,96109.00
2023-02-25T22:54:04.705Z,96115.00
2023-02-25T22:56:31.546Z,96105.00
2023-02-25T22:58:58.427Z,96112.00
2023-02-25T23:01:26.210Z,96119.00
2023-02-25T23:03:56.252Z,96114.00
2023-02-25T23:06:37.411Z,96115.00
2023-02-25T23:09:08.755Z,96131.00
2023-02-25T23:11:35.616Z,96130.00
2023-02-25T23:14:03.761Z,96127.00
2023-02-25T23:16:40.908Z,96126.00
2023-02-25T23:19:11.649Z,96131.00
2023-02-25T23:21:38.823Z,96139.00
2023-02-25T23:24:08.505Z,96136.00
2023-02-25T23:26:41.074Z,96143.00
2023-02-25T23:29:10.872Z,96145.00
2023-02-25T23:31:46.925Z,96149.00
2023-02-25T23:34:21.581Z,96146.00
2023-02-25T23:36:49.439Z,96146.00
2023-02-25T23:39:17.020Z,96139.00
2023-02-25T23:41:44.227Z,96143.00
2023-02-25T23:44:13.092Z,96134.00
2023-02-25T23:46:44.847Z,96157.00
2023-02-25T23:49:14.816Z,96145.00
2023-02-25T23:51:44.834Z,96147.00
2023-02-25T23:54:15.568Z,96156.00
2023-02-25T23:56:42.409Z,96155.00
2023-02-25T23:59:10.429Z,96161.00
